Time;durP1;ratioP1;P1;durP2;ratioP2;P2;SDS_P1;SDS_P2;PMS_P1;PMS_P2;Temp;Humidity;BMP_temperature;BMP_pressure;BME280_temperature;BME280_humidity;BME280_pressure;Samples;Min_cycle;Max_cycle;Signal;HPM_P1;HPM_P2
2022/07/12 00:02:17;;;;;;;1.47;0.60;;;16.40;99.90;;;;;;5037725;28;20079;-90
2022/07/12 00:04:43;;;;;;;0.60;0.57;;;16.40;99.90;;;;;;5037685;28;20819;-85
2022/07/12 00:07:09;;;;;;;0.60;0.60;;;16.30;99.90;;;;;;5021613;28;20780;-85
2022/07/12 00:09:34;;;;;;;0.60;0.60;;;16.30;99.90;;;;;;5070582;28;20059;-85
2022/07/12 00:12:00;;;;;;;0.77;0.50;;;16.30;99.90;;;;;;5037577;28;20282;-85
2022/07/12 00:14:26;;;;;;;0.80;0.80;;;16.30;99.90;;;;;;5038473;28;20052;-85
2022/07/12 00:16:51;;;;;;;1.37;0.80;;;16.20;99.90;;;;;;5075380;28;20041;-85
2022/07/12 00:19:18;;;;;;;0.67;0.60;;;16.20;99.90;;;;;;5024837;28;20372;-86
2022/07/12 00:21:44;;;;;;;0.77;0.73;;;16.20;99.90;;;;;;5074587;28;20807;-85
2022/07/12 00:34:07;;;;;;;0.50;0.50;;;16.10;99.90;;;;;;5023960;23;20133;-85
2022/07/12 00:36:33;;;;;;;0.50;0.47;;;16.10;99.90;;;;;;4943450;28;20493;-85
2022/07/12 00:38:58;;;;;;;0.95;0.70;;;15.30;99.90;;;;;;4959253;28;20094;-85
2022/07/12 00:41:24;;;;;;;0.60;0.60;;;16.10;99.90;;;;;;4959705;28;20047;-85
2022/07/12 00:43:50;;;;;;;0.40;0.40;;;16.10;99.90;;;;;;4975269;28;20484;-86
2022/07/12 00:46:21;;;;;;;0.70;0.50;;;16.00;99.90;;;;;;4943407;28;20510;-85
2022/07/12 00:48:46;;;;;;;1.30;0.52;;;16.00;99.90;;;;;;4959797;28;20093;-85
2022/07/12 00:51:12;;;;;;;0.70;0.70;;;15.90;99.90;;;;;;4975169;28;20051;-85
2022/07/12 00:53:40;;;;;;;0.98;0.77;;;15.90;99.90;;;;;;4959558;28;20054;-85
2022/07/12 00:56:06;;;;;;;0.77;0.70;;;15.90;99.90;;;;;;4959108;28;20054;-85
2022/07/12 00:58:32;;;;;;;0.57;0.57;;;15.90;99.90;;;;;;4959319;28;20047;-85
2022/07/12 01:00:58;;;;;;;1.23;0.68;;;15.90;99.90;;;;;;4991319;28;20047;-90
2022/07/12 01:03:25;;;;;;;1.10;0.73;;;15.80;99.90;;;;;;4991362;28;20536;-85
2022/07/12 01:05:50;;;;;;;;;;;15.80;99.90;;;;;;4959726;28;20051;-85
2022/07/12 01:08:17;;;;;;;0.60;0.60;;;15.70;99.90;;;;;;4974903;28;19929;-85
2022/07/12 01:10:43;;;;;;;1.25;1.00;;;15.70;99.90;;;;;;4975296;28;20090;-85
2022/07/12 01:13:09;;;;;;;0.68;0.65;;;15.70;99.90;;;;;;4990705;28;20130;-86
2022/07/12 01:15:36;;;;;;;0.60;0.60;;;15.70;99.90;;;;;;4959296;28;20520;-85
2022/07/12 01:18:02;;;;;;;0.63;0.63;;;15.70;99.90;;;;;;4958527;28;20457;-85
2022/07/12 01:20:28;;;;;;;1.08;0.77;;;15.70;99.90;;;;;;4958881;28;20047;-85
2022/07/12 01:22:57;;;;;;;1.45;1.17;;;15.60;99.90;;;;;;4959010;28;20047;-87
2022/07/12 01:25:23;;;;;;;1.10;0.68;;;15.50;99.90;;;;;;4958614;28;20108;-85
2022/07/12 01:27:49;;;;;;;1.50;0.85;;;15.50;99.90;;;;;;4991394;28;20058;-85
2022/07/12 01:30:15;;;;;;;0.57;0.57;;;15.40;99.90;;;;;;4974714;28;20116;-85
2022/07/12 01:32:41;;;;;;;0.45;0.45;;;15.40;99.90;;;;;;4990925;28;20149;-85
2022/07/12 01:35:07;;;;;;;0.65;0.50;;;15.30;99.90;;;;;;4990723;28;20106;-85
2022/07/12 01:37:38;;;;;;;0.63;0.63;;;15.20;99.90;;;;;;4942854;28;20101;-86
2022/07/12 01:40:07;;;;;;;1.50;0.98;;;15.10;99.90;;;;;;4974020;28;20047;-85
2022/07/12 01:42:33;;;;;;;0.35;0.35;;;15.10;99.90;;;;;;4958552;28;20056;-85
2022/07/12 01:44:59;;;;;;;0.77;0.70;;;15.00;99.90;;;;;;4974253;28;20405;-84
2022/07/12 01:47:30;;;;;;;0.60;0.60;;;14.90;99.90;;;;;;4990713;28;20062;-85
2022/07/12 01:50:00;;;;;;;0.35;0.30;;;14.80;99.90;;;;;;4974484;28;20066;-85
2022/07/12 01:52:26;;;;;;;;;;;14.70;99.90;;;;;;4974533;28;20134;-85
2022/07/12 01:54:54;;;;;;;1.02;1.02;;;14.60;99.90;;;;;;4958102;28;20012;-84
2022/07/12 01:57:20;;;;;;;1.33;0.60;;;14.60;99.90;;;;;;4990442;28;20051;-86
2022/07/12 01:59:46;;;;;;;1.17;0.70;;;14.50;99.90;;;;;;4958018;28;20078;-84
2022/07/12 02:02:12;;;;;;;1.00;0.63;;;14.50;99.90;;;;;;4990166;28;20043;-85
2022/07/12 02:04:38;;;;;;;0.60;0.60;;;14.40;99.90;;;;;;4958277;28;20513;-85
2022/07/12 02:07:05;;;;;;;1.23;0.90;;;14.40;99.90;;;;;;4958280;28;20058;-89
2022/07/12 02:09:31;;;;;;;0.60;0.50;;;14.30;99.90;;;;;;4990036;28;20520;-86
2022/07/12 02:11:57;;;;;;;0.32;0.30;;;14.80;99.90;;;;;;4973942;28;20042;-85
2022/07/12 02:14:23;;;;;;;0.77;0.52;;;15.20;99.90;;;;;;4989863;28;20042;-85
2022/07/12 02:16:49;;;;;;;0.88;0.70;;;14.20;99.90;;;;;;4974336;28;20153;-85
2022/07/12 02:19:15;;;;;;;0.70;0.60;;;14.10;99.90;;;;;;4941433;28;20054;-85
2022/07/12 02:21:41;;;;;;;1.33;0.63;;;14.10;99.90;;;;;;4957607;28;20042;-85
2022/07/12 02:24:07;;;;;;;0.90;0.60;;;13.70;99.90;;;;;;4957617;28;20093;-89
2022/07/12 02:26:34;;;;;;;;;;;14.00;99.90;;;;;;4958494;28;20050;-85
2022/07/12 02:29:01;;;;;;;0.30;0.30;;;13.90;99.90;;;;;;4973779;28;19922;-84
2022/07/12 02:31:27;;;;;;;0.63;0.40;;;13.20;99.90;;;;;;4957307;28;20054;-84
2022/07/12 02:33:52;;;;;;;0.73;0.60;;;14.00;99.90;;;;;;4957513;28;20401;-85
2022/07/12 02:36:18;;;;;;;0.50;0.47;;;13.90;99.90;;;;;;4957470;28;20089;-84
2022/07/12 02:38:44;;;;;;;2.10;0.60;;;13.90;99.90;;;;;;4957128;28;20400;-89
2022/07/12 02:41:09;;;;;;;0.30;0.30;;;13.80;99.90;;;;;;4957180;28;20047;-90
2022/07/12 02:43:35;;;;;;;0.95;0.60;;;13.80;99.90;;;;;;4989559;28;20054;-85
2022/07/12 02:46:07;;;;;;;0.60;0.60;;;13.80;99.90;;;;;;4957649;28;20129;-84
2022/07/12 02:48:32;;;;;;;0.88;0.60;;;13.70;99.90;;;;;;4973207;28;20082;-84
2022/07/12 02:51:02;;;;;;;0.90;0.77;;;13.70;99.90;;;;;;4941300;28;20516;-84
2022/07/12 02:53:28;;;;;;;0.93;0.82;;;13.70;99.90;;;;;;4940857;28;20137;-84
2022/07/12 02:55:54;;;;;;;0.60;0.60;;;13.60;99.90;;;;;;4989390;28;20133;-85
2022/07/12 02:58:20;;;;;;;0.60;0.60;;;13.50;99.90;;;;;;4955985;28;20039;-85
2022/07/12 03:00:47;;;;;;;1.38;0.68;;;13.50;99.90;;;;;;4957252;28;20050;-85
2022/07/12 03:03:13;;;;;;;0.73;0.52;;;13.50;99.90;;;;;;4957168;28;20053;-90
2022/07/12 03:05:39;;;;;;;1.33;1.13;;;13.40;99.90;;;;;;4957321;28;20058;-85
2022/07/12 03:08:07;;;;;;;1.55;0.90;;;13.40;99.90;;;;;;4989199;28;20129;-84
2022/07/12 03:10:34;;;;;;;0.82;0.75;;;13.40;99.90;;;;;;4940941;28;20042;-85
2022/07/12 03:12:59;;;;;;;3.28;1.02;;;13.30;99.90;;;;;;4989326;28;20047;-85
2022/07/12 03:15:25;;;;;;;0.80;0.70;;;13.30;99.90;;;;;;4940764;28;20129;-85
2022/07/12 03:17:51;;;;;;;0.68;0.65;;;13.20;99.90;;;;;;4989060;28;20082;-85
2022/07/12 03:20:17;;;;;;;0.77;0.63;;;13.30;99.90;;;;;;4972754;28;20043;-86
2022/07/12 03:22:46;;;;;;;0.60;0.60;;;13.30;99.90;;;;;;4956995;28;20508;-85
2022/07/12 03:25:12;;;;;;;0.95;0.57;;;13.20;99.90;;;;;;4956856;28;20089;-85
2022/07/12 03:27:38;;;;;;;0.60;0.60;;;13.20;99.90;;;;;;4988459;28;20113;-85
2022/07/12 03:30:05;;;;;;;0.65;0.60;;;13.20;99.90;;;;;;4956865;28;20057;-85
2022/07/12 03:32:30;;;;;;;0.80;0.80;;;13.20;99.90;;;;;;4988461;28;20061;-86
2022/07/12 03:34:56;;;;;;;3.60;1.43;;;13.20;99.90;;;;;;4956834;28;20051;-85
2022/07/12 03:37:22;;;;;;;1.10;1.00;;;13.20;99.90;;;;;;4956593;28;20047;-85
2022/07/12 03:39:48;;;;;;;2.33;1.40;;;13.20;99.90;;;;;;4956328;28;20109;-85
2022/07/12 03:42:13;;;;;;;2.13;0.93;;;13.20;99.90;;;;;;4989083;28;20121;-85
2022/07/12 03:44:39;;;;;;;10.27;2.53;;;13.20;99.90;;;;;;4972487;28;20054;-85
2022/07/12 03:47:05;;;;;;;2.35;1.63;;;13.10;99.90;;;;;;4956514;28;20050;-85
2022/07/12 03:49:31;;;;;;;2.00;1.35;;;13.10;99.90;;;;;;4957790;28;20050;-85
2022/07/12 03:51:57;;;;;;;1.57;0.93;;;13.10;99.90;;;;;;4960871;28;20050;-85
2022/07/12 03:54:23;;;;;;;3.40;1.40;;;13.10;99.90;;;;;;4960496;28;20349;-85
2022/07/12 03:59:33;;;;;;;0.85;0.73;;;13.10;99.90;;;;;;4978700;28;20051;-85
2022/07/12 04:01:59;;;;;;;2.90;1.15;;;13.10;99.90;;;;;;4960548;28;20375;-85
2022/07/12 04:04:25;;;;;;;1.03;0.93;;;13.00;99.90;;;;;;4976089;28;20095;-85
2022/07/12 04:06:51;;;;;;;1.98;1.27;;;13.00;99.90;;;;;;4944238;28;20051;-85
2022/07/12 04:09:17;;;;;;;2.07;0.70;;;13.00;99.90;;;;;;4992536;28;20046;-85
2022/07/12 04:11:43;;;;;;;2.78;0.60;;;13.00;99.90;;;;;;4959873;28;20485;-85
2022/07/12 04:14:08;;;;;;;0.80;0.80;;;13.00;99.90;;;;;;4960361;28;20112;-85
2022/07/12 04:16:34;;;;;;;2.03;0.80;;;13.00;99.90;;;;;;4943607;28;20086;-85
2022/07/12 04:19:00;;;;;;;0.93;0.90;;;13.00;99.90;;;;;;4943952;28;20135;-85
2022/07/12 04:21:25;;;;;;;1.00;0.90;;;13.00;99.90;;;;;;4975895;28;20051;-85
2022/07/12 04:23:51;;;;;;;0.47;0.47;;;13.00;99.90;;;;;;4960285;28;20047;-85
2022/07/12 04:26:17;;;;;;;2.72;0.88;;;13.10;99.90;;;;;;4959912;28;20392;-85
2022/07/12 04:28:42;;;;;;;0.63;0.53;;;13.10;99.90;;;;;;4991634;28;20049;-85
2022/07/12 04:31:09;;;;;;;0.80;0.67;;;13.10;99.90;;;;;;4992443;28;20133;-85
2022/07/12 04:33:35;;;;;;;0.60;0.60;;;13.10;99.90;;;;;;4959547;28;20059;-84
2022/07/12 04:36:01;;;;;;;1.17;0.70;;;13.10;99.90;;;;;;4959987;28;20054;-85
2022/07/12 04:38:27;;;;;;;0.47;0.47;;;13.10;99.90;;;;;;4959058;28;20389;-85
2022/07/12 04:40:53;;;;;;;1.38;0.60;;;13.20;99.90;;;;;;4960123;28;20467;-85
2022/07/12 04:43:18;;;;;;;0.33;0.30;;;13.30;99.90;;;;;;4975645;28;20134;-85
2022/07/12 04:45:44;;;;;;;1.20;1.00;;;13.30;99.90;;;;;;4959331;28;20039;-85
2022/07/12 04:48:11;;;;;;;0.90;0.90;;;13.40;99.90;;;;;;4991388;28;20039;-85
2022/07/12 04:50:37;;;;;;;1.23;1.10;;;13.50;99.90;;;;;;4943237;28;20047;-85
2022/07/12 04:53:03;;;;;;;1.17;0.85;;;13.50;99.90;;;;;;4959851;28;20482;-85
2022/07/12 04:55:29;;;;;;;1.47;0.80;;;13.60;99.90;;;;;;4959174;28;20054;-86
2022/07/12 04:57:55;;;;;;;1.00;0.80;;;13.60;99.90;;;;;;4975543;28;20474;-85
2022/07/12 05:00:21;;;;;;;0.80;0.80;;;13.80;99.90;;;;;;4991004;28;20171;-85
2022/07/12 05:02:47;;;;;;;;;;;13.90;99.90;;;;;;4959717;28;20053;-85
2022/07/12 05:05:14;;;;;;;0.77;0.70;;;13.00;99.90;;;;;;4975508;28;19922;-85
2022/07/12 05:07:40;;;;;;;0.82;0.75;;;14.10;99.90;;;;;;4958662;28;20485;-85
2022/07/12 05:10:06;;;;;;;0.77;0.77;;;14.30;99.90;;;;;;4991546;28;20402;-86
2022/07/12 05:12:33;;;;;;;1.40;1.10;;;14.40;99.90;;;;;;4959164;28;20077;-86
2022/07/12 05:14:59;;;;;;;0.73;0.73;;;14.50;99.90;;;;;;4959324;28;20509;-86
2022/07/12 05:17:25;;;;;;;1.73;1.47;;;14.60;99.90;;;;;;4958937;28;20053;-86
2022/07/12 05:19:50;;;;;;;1.77;1.10;;;14.70;99.90;;;;;;4958174;28;20043;-85
2022/07/12 05:22:16;;;;;;;1.37;1.10;;;14.80;99.90;;;;;;4975265;28;20086;-85
2022/07/12 05:24:42;;;;;;;1.52;1.10;;;14.90;99.90;;;;;;4958773;28;20137;-85
2022/07/12 05:27:08;;;;;;;2.00;1.70;;;14.90;99.90;;;;;;4943060;28;20133;-85
2022/07/12 05:29:33;;;;;;;1.70;0.70;;;15.10;99.90;;;;;;4958516;28;20046;-86
2022/07/12 05:32:01;;;;;;;1.63;1.30;;;15.10;99.90;;;;;;4942776;28;20058;-86
2022/07/12 05:34:27;;;;;;;2.55;1.17;;;15.10;99.90;;;;;;4974199;28;20391;-85
2022/07/12 05:36:53;;;;;;;1.75;1.20;;;15.20;99.90;;;;;;4958516;28;20049;-86
2022/07/12 05:39:18;;;;;;;1.23;1.10;;;15.20;99.90;;;;;;4990409;28;20054;-86
2022/07/12 05:41:46;;;;;;;2.90;1.50;;;15.40;99.90;;;;;;4942333;28;20053;-86
2022/07/12 05:44:12;;;;;;;2.03;1.45;;;15.60;99.90;;;;;;4991081;28;20050;-86
2022/07/12 05:46:39;;;;;;;2.85;1.48;;;15.90;99.90;;;;;;4942461;28;20043;-86
2022/07/12 05:49:05;;;;;;;3.00;1.75;;;16.10;99.90;;;;;;4958463;28;20102;-86
2022/07/12 05:54:14;;;;;;;2.65;1.90;;;16.40;99.90;;;;;;4974996;28;20050;-85
2022/07/12 05:56:40;;;;;;;1.80;1.57;;;16.60;99.90;;;;;;4974327;28;20058;-86
2022/07/12 05:59:06;;;;;;;3.07;1.93;;;16.60;99.90;;;;;;4958116;28;20524;-86
2022/07/12 06:01:31;;;;;;;2.30;2.03;;;16.60;99.90;;;;;;4958605;28;20497;-86
2022/07/12 06:03:57;;;;;;;4.50;1.83;;;16.50;99.90;;;;;;4974226;28;20294;-86
2022/07/12 06:06:23;;;;;;;4.13;1.90;;;16.50;99.90;;;;;;4958319;28;20046;-86
2022/07/12 06:08:48;;;;;;;2.77;1.60;;;16.40;99.90;;;;;;4957826;28;20294;-87
2022/07/12 06:11:14;;;;;;;1.87;1.63;;;16.40;99.90;;;;;;4958478;28;20387;-85
2022/07/12 06:13:40;;;;;;;2.07;1.70;;;16.40;99.90;;;;;;4957659;28;20129;-83
2022/07/12 06:16:06;;;;;;;3.50;2.43;;;16.40;99.90;;;;;;4958356;28;20640;-82
2022/07/12 06:18:35;;;;;;;2.63;2.03;;;16.40;99.90;;;;;;4990614;28;20047;-82
2022/07/12 06:21:00;;;;;;;1.80;1.65;;;16.40;99.90;;;;;;4974084;28;20042;-83
2022/07/12 06:23:26;;;;;;;4.97;2.40;;;16.40;99.90;;;;;;4974092;28;20050;-83
2022/07/12 06:25:52;;;;;;;2.83;2.08;;;16.40;99.90;;;;;;4957778;28;20054;-84
2022/07/12 06:28:18;;;;;;;3.25;1.80;;;16.40;99.90;;;;;;4990062;28;20047;-85
2022/07/12 06:30:43;;;;;;;1.93;1.40;;;16.40;99.90;;;;;;4956970;28;20109;-84
2022/07/12 06:33:09;;;;;;;2.37;1.73;;;16.50;99.90;;;;;;4974642;28;20294;-85
2022/07/12 06:35:35;;;;;;;3.03;2.00;;;16.50;99.90;;;;;;4957504;28;20422;-83
2022/07/12 06:38:01;;;;;;;2.50;1.80;;;16.50;99.90;;;;;;4989587;28;20077;-84
2022/07/12 06:40:27;;;;;;;3.65;2.05;;;16.50;99.90;;;;;;4957641;28;20054;-87
2022/07/12 06:42:54;;;;;;;2.40;2.13;;;16.60;99.90;;;;;;4941693;28;20051;-87
2022/07/12 06:45:20;;;;;;;3.72;2.50;;;16.60;99.90;;;;;;4941887;28;20054;-87
2022/07/12 06:47:46;;;;;;;4.70;2.10;;;16.70;99.90;;;;;;4957199;28;20061;-87
2022/07/12 06:50:11;;;;;;;2.23;1.73;;;16.80;99.90;;;;;;4989188;28;20070;-85
2022/07/12 06:52:37;;;;;;;3.13;1.90;;;16.80;99.90;;;;;;4957167;28;20309;-84
2022/07/12 06:55:03;;;;;;;2.80;1.98;;;16.90;99.90;;;;;;4989080;28;20286;-87
2022/07/12 06:57:33;;;;;;;1.88;1.77;;;16.90;99.90;;;;;;4956910;28;20095;-84
2022/07/12 06:59:59;;;;;;;1.80;1.55;;;17.00;99.90;;;;;;4972712;28;20058;-85
2022/07/12 07:02:26;;;;;;;2.58;1.90;;;17.10;99.90;;;;;;4972767;28;20098;-84
2022/07/12 07:04:52;;;;;;;2.35;1.90;;;17.10;99.90;;;;;;4972227;28;20413;-83
2022/07/12 07:07:17;;;;;;;2.47;1.43;;;17.20;99.90;;;;;;4971783;28;20117;-86
2022/07/12 07:09:43;;;;;;;1.77;1.65;;;17.30;99.90;;;;;;4972183;28;20229;-91
2022/07/12 07:12:09;;;;;;;3.35;1.85;;;17.40;99.90;;;;;;4988804;28;20192;-87
2022/07/12 07:14:35;;;;;;;2.72;1.50;;;17.60;99.90;;;;;;4973674;28;20042;-85
2022/07/12 07:17:01;;;;;;;1.95;1.60;;;17.70;99.90;;;;;;4972396;28;20122;-85
2022/07/12 07:19:26;;;;;;;2.27;1.50;;;17.70;99.90;;;;;;4973616;28;20039;-84
2022/07/12 07:21:56;;;;;;;3.67;2.03;;;17.80;99.90;;;;;;4956305;28;20349;-85
2022/07/12 07:24:22;;;;;;;2.33;1.45;;;17.90;99.90;;;;;;4988768;28;20043;-85
2022/07/12 07:26:48;;;;;;;3.35;1.63;;;17.90;99.90;;;;;;4973070;28;20047;-85
2022/07/12 07:31:58;;;;;;;2.25;1.50;;;18.20;99.90;;;;;;4972534;28;20055;-85
2022/07/12 07:34:24;;;;;;;1.75;1.40;;;18.40;99.90;;;;;;4940374;28;20108;-86
2022/07/12 07:36:51;;;;;;;2.58;1.65;;;18.60;99.90;;;;;;4956336;28;20069;-83
2022/07/12 07:39:16;;;;;;;2.00;1.58;;;18.70;99.90;;;;;;4988604;28;20042;-84
2022/07/12 07:41:42;;;;;;;2.75;1.65;;;18.80;99.90;;;;;;4973892;28;20142;-84
2022/07/12 07:44:08;;;;;;;2.30;1.83;;;18.90;99.90;;;;;;4972398;28;20054;-85
2022/07/12 07:46:34;;;;;;;2.00;1.53;;;19.00;99.90;;;;;;4973562;28;20474;-85
2022/07/12 07:48:59;;;;;;;2.17;1.90;;;19.10;99.90;;;;;;4956228;28;20302;-84
2022/07/12 07:51:25;;;;;;;2.83;2.03;;;19.30;99.90;;;;;;4956305;28;20054;-83
2022/07/12 07:53:50;;;;;;;2.03;1.63;;;19.30;99.90;;;;;;4973366;28;20042;-86
2022/07/12 07:56:16;;;;;;;1.37;1.27;;;19.40;99.90;;;;;;4956386;28;20054;-88
2022/07/12 07:58:42;;;;;;;2.72;1.70;;;19.50;99.90;;;;;;4956525;28;20337;-84
2022/07/12 08:01:08;;;;;;;2.20;1.88;;;19.60;99.90;;;;;;4956426;28;20046;-84
2022/07/12 08:03:33;;;;;;;1.50;1.35;;;19.60;99.90;;;;;;4972745;28;20138;-83
2022/07/12 08:06:00;;;;;;;1.80;1.65;;;19.70;99.90;;;;;;4988559;28;20053;-84
2022/07/12 08:08:30;;;;;;;2.20;1.60;;;19.70;99.90;;;;;;4940564;28;20066;-83
2022/07/12 08:10:56;;;;;;;3.05;1.55;;;19.80;99.90;;;;;;4956782;28;20057;-84
2022/07/12 08:13:22;;;;;;;2.90;1.85;;;19.90;99.90;;;;;;4956390;28;20055;-86
2022/07/12 08:15:48;;;;;;;2.17;1.83;;;19.80;99.90;;;;;;4972220;28;20067;-84
2022/07/12 08:18:14;;;;;;;2.33;1.75;;;20.10;99.90;;;;;;4988132;28;20042;-84
2022/07/12 08:20:39;;;;;;;2.05;1.52;;;20.10;99.90;;;;;;4973583;28;20054;-84
2022/07/12 08:23:06;;;;;;;2.17;1.55;;;20.20;99.90;;;;;;4971486;28;20058;-82
2022/07/12 08:25:31;;;;;;;1.85;1.42;;;20.30;99.90;;;;;;4988545;28;20129;-82
2022/07/12 08:27:57;;;;;;;1.92;1.60;;;20.40;99.90;;;;;;4987856;28;20597;-83
2022/07/12 08:30:23;;;;;;;1.95;1.80;;;20.40;99.90;;;;;;4972049;28;20453;-83
2022/07/12 08:32:48;;;;;;;2.15;1.60;;;20.50;99.90;;;;;;4972024;28;20042;-85
2022/07/12 08:35:14;;;;;;;2.00;1.60;;;20.60;99.90;;;;;;4987923;28;20207;-83
2022/07/12 08:37:41;;;;;;;2.03;1.75;;;20.70;99.90;;;;;;4976306;28;20066;-85
2022/07/12 08:40:07;;;;;;;2.67;1.27;;;20.70;99.90;;;;;;4976444;28;20140;-86
2022/07/12 08:42:33;;;;;;;1.90;1.40;;;20.70;99.90;;;;;;4992322;28;20101;-87
2022/07/12 08:44:59;;;;;;;1.42;1.27;;;20.70;99.90;;;;;;4959746;28;20050;-87
2022/07/12 08:47:25;;;;;;;;;;;20.80;99.90;;;;;;4960381;28;20055;-86
2022/07/12 08:50:13;;;;;;;2.35;1.83;;;20.80;99.90;;;;;;4959886;28;19929;-87
2022/07/12 08:52:45;;;;;;;;;;;20.90;99.90;;;;;;4992552;28;20050;-86
2022/07/12 08:55:28;;;;;;;1.80;1.67;;;21.00;99.90;;;;;;4975494;28;19929;-86
2022/07/12 08:57:57;;;;;;;1.02;1.02;;;21.00;99.90;;;;;;4959651;28;20051;-86
2022/07/12 09:00:25;;;;;;;1.92;1.65;;;21.00;99.90;;;;;;4991961;28;20050;-86
2022/07/12 09:02:58;;;;;;;1.98;1.70;;;21.00;99.90;;;;;;4959629;28;20137;-86
2022/07/12 09:05:32;;;;;;;1.40;1.30;;;21.00;99.90;;;;;;4991835;28;20086;-86
2022/07/12 09:08:09;;;;;;;1.83;1.52;;;21.10;99.90;;;;;;4960318;28;20051;-89
2022/07/12 09:10:51;;;;;;;2.58;1.60;;;21.10;99.90;;;;;;4991935;28;20045;-86
2022/07/12 09:13:18;;;;;;;2.95;2.15;;;21.10;99.90;;;;;;4959353;28;20082;-87
2022/07/12 09:15:43;;;;;;;2.75;2.53;;;21.10;99.90;;;;;;4959517;28;20485;-86
2022/07/12 09:18:17;;;;;;;2.50;1.95;;;21.20;99.90;;;;;;4943179;28;20049;-87
2022/07/12 09:20:50;;;;;;;4.65;2.33;;;21.20;99.90;;;;;;4944760;28;20397;-86
2022/07/12 09:23:17;;;;;;;2.40;2.05;;;21.20;99.90;;;;;;4975382;28;20106;-86
2022/07/12 09:25:46;;;;;;;;;;;21.30;99.90;;;;;;4943753;28;20105;-86
2022/07/12 09:28:12;;;;;;;2.65;2.00;;;21.30;99.90;;;;;;4959026;28;19929;-86
2022/07/12 09:30:48;;;;;;;2.72;2.47;;;21.30;99.90;;;;;;4959139;28;20047;-86
2022/07/12 09:36:06;;;;;;;1.73;1.60;;;21.40;99.90;;;;;;4975053;28;20396;-91
2022/07/12 09:38:34;;;;;;;3.80;1.80;;;21.40;99.90;;;;;;4959820;28;20129;-86
2022/07/12 09:41:00;;;;;;;2.53;1.88;;;21.60;99.90;;;;;;4958843;28;20564;-87
2022/07/12 09:43:27;;;;;;;1.80;1.65;;;21.60;99.90;;;;;;4958605;28;20059;-86
2022/07/12 09:45:53;;;;;;;2.20;2.00;;;21.70;99.90;;;;;;4942507;28;20104;-86
2022/07/12 09:48:27;;;;;;;1.50;1.40;;;21.70;99.90;;;;;;4989503;28;20226;-86
2022/07/12 09:50:56;;;;;;;2.70;1.60;;;21.70;99.90;;;;;;4958817;28;20086;-86
2022/07/12 09:53:31;;;;;;;2.97;2.17;;;21.60;99.90;;;;;;4990690;28;20046;-87
2022/07/12 09:55:58;;;;;;;1.48;1.30;;;21.70;99.90;;;;;;4958889;28;20043;-86
2022/07/12 09:58:31;;;;;;;2.35;1.92;;;21.70;99.90;;;;;;4990595;28;20085;-86
2022/07/12 10:01:02;;;;;;;2.40;1.48;;;21.70;99.90;;;;;;4958783;28;20120;-86
2022/07/12 10:03:31;;;;;;;1.60;1.50;;;21.80;99.90;;;;;;4942773;28;20051;-86
2022/07/12 10:06:01;;;;;;;1.30;1.20;;;21.80;99.90;;;;;;4974172;28;20047;-83
2022/07/12 10:08:30;;;;;;;1.70;1.45;;;21.90;99.90;;;;;;4990445;28;20050;-84
2022/07/12 10:10:57;;;;;;;1.90;1.67;;;22.00;99.90;;;;;;4973926;28;20051;-86
2022/07/12 10:13:23;;;;;;;1.73;1.45;;;22.10;99.90;;;;;;4973241;28;20141;-84
2022/07/12 10:15:50;;;;;;;1.73;1.13;;;22.20;99.90;;;;;;4990549;28;20109;-86
2022/07/12 10:18:19;;;;;;;1.50;1.20;;;22.30;99.90;;;;;;4989586;28;20137;-89
2022/07/12 10:20:46;;;;;;;1.38;1.15;;;22.40;99.90;;;;;;4989907;28;20051;-88
2022/07/12 10:23:34;;;;;;;1.55;1.45;;;22.40;99.90;;;;;;4973362;28;20050;-87
2022/07/12 10:26:07;;;;;;;1.38;1.27;;;22.50;99.90;;;;;;4957924;28;20043;-85
2022/07/12 10:28:56;;;;;;;2.53;1.88;;;22.50;99.90;;;;;;4973588;28;20051;-88
2022/07/12 10:31:24;;;;;;;2.05;1.25;;;22.70;99.90;;;;;;4976398;28;20059;-86
2022/07/12 10:34:07;;;;;;;1.73;1.38;;;22.80;99.90;;;;;;4989260;28;20062;-90
2022/07/12 10:36:56;;;;;;;1.95;1.20;;;22.90;99.90;;;;;;4956445;28;20055;-87
2022/07/12 10:39:23;;;;;;;1.80;1.00;;;23.00;99.90;;;;;;4955822;28;20043;-86
2022/07/12 10:42:05;;;;;;;0.73;0.73;;;23.00;99.90;;;;;;4988856;28;20121;-86
2022/07/12 10:44:45;;;;;;;1.35;0.90;;;23.00;99.90;;;;;;4956795;28;20043;-86
2022/07/12 10:47:13;;;;;;;1.70;1.60;;;23.00;99.90;;;;;;4989424;28;20508;-91
2022/07/12 10:49:46;;;;;;;1.45;1.33;;;23.00;99.90;;;;;;4989532;28;20054;-86
2022/07/12 10:52:17;;;;;;;1.08;0.98;;;23.10;99.90;;;;;;4957070;28;20054;-91
2022/07/12 10:55:03;;;;;;;1.70;1.48;;;23.10;99.90;;;;;;4957999;28;20051;-86
2022/07/12 10:57:39;;;;;;;1.40;1.27;;;23.20;99.90;;;;;;4965245;28;20101;-86
2022/07/12 11:00:09;;;;;;;1.92;1.30;;;23.20;99.90;;;;;;4989261;28;20054;-86
2022/07/12 11:02:35;;;;;;;1.15;0.95;;;23.30;99.90;;;;;;4957328;28;20043;-86
2022/07/12 11:05:00;;;;;;;2.75;1.30;;;23.40;99.90;;;;;;4975633;28;20130;-87
2022/07/12 11:07:28;;;;;;;1.70;1.20;;;23.40;99.90;;;;;;4956765;28;20082;-85
2022/07/12 11:09:54;;;;;;;1.25;1.00;;;23.50;99.90;;;;;;4974336;28;20110;-86
2022/07/12 11:12:21;;;;;;;1.52;1.00;;;23.50;99.90;;;;;;4956958;28;20050;-86
2022/07/12 11:14:46;;;;;;;;;;;23.50;99.90;;;;;;4973560;28;20485;-86
2022/07/12 11:17:12;;;;;;;0.95;0.95;;;23.50;99.90;;;;;;4972740;28;20024;-86
2022/07/12 11:19:38;;;;;;;1.63;1.20;;;23.60;99.90;;;;;;4956403;28;20046;-85
2022/07/12 11:22:04;;;;;;;1.40;0.80;;;23.60;99.90;;;;;;4957116;28;20102;-86
2022/07/12 11:24:35;;;;;;;1.73;1.23;;;23.60;99.90;;;;;;4956543;28;20050;-86
2022/07/12 11:27:01;;;;;;;0.80;0.80;;;23.70;99.90;;;;;;4972716;28;20051;-86
2022/07/12 11:29:27;;;;;;;0.93;0.70;;;23.60;99.90;;;;;;4971934;28;20050;-89
2022/07/12 11:32:06;;;;;;;10.88;1.23;;;23.70;99.90;;;;;;4956769;28;20494;-96
2022/07/12 11:34:34;;;;;;;3.50;1.30;;;23.70;99.90;;;;;;4955805;28;20058;-85
2022/07/12 11:37:01;;;;;;;2.67;1.33;;;23.70;99.90;;;;;;4956950;28;20057;-85
2022/07/12 11:39:34;;;;;;;1.00;0.88;;;23.70;99.90;;;;;;4973016;28;20051;-86
2022/07/12 11:42:00;;;;;;;4.65;1.38;;;23.70;99.90;;;;;;4956795;28;20062;-85
2022/07/12 11:44:45;;;;;;;;;;;23.70;99.90;;;;;;4989015;28;20074;-85
2022/07/12 11:47:12;;;;;;;1.02;0.98;;;23.70;99.90;;;;;;4989352;28;20375;-87
2022/07/12 11:49:45;;;;;;;1.40;1.15;;;23.80;99.90;;;;;;4972138;28;20069;-86
2022/07/12 11:52:17;;;;;;;2.08;0.80;;;23.80;99.90;;;;;;4973047;28;20067;-87
2022/07/12 11:54:44;;;;;;;0.57;0.57;;;23.90;99.90;;;;;;4988661;28;20120;-86
2022/07/12 11:57:11;;;;;;;1.48;1.20;;;24.00;99.90;;;;;;4988548;28;20058;-86
2022/07/12 11:59:37;;;;;;;1.80;0.85;;;24.00;99.90;;;;;;4955624;28;20042;-86
2022/07/12 12:02:15;;;;;;;0.90;0.90;;;24.10;99.90;;;;;;4988766;28;20050;-88
2022/07/12 12:04:47;;;;;;;0.95;0.77;;;24.20;99.90;;;;;;4973548;28;20074;-87
2022/07/12 12:07:16;;;;;;;1.05;1.00;;;24.40;99.90;;;;;;4988580;28;20047;-85
2022/07/12 12:10:01;;;;;;;1.17;1.02;;;24.50;99.90;;;;;;4956111;28;20511;-87
2022/07/12 12:12:45;;;;;;;1.33;0.70;;;24.60;99.90;;;;;;4992295;28;20501;-88
2022/07/12 12:15:32;;;;;;;2.58;1.05;;;24.70;99.90;;;;;;4976214;28;20461;-88
2022/07/12 12:17:59;;;;;;;0.65;0.60;;;24.80;99.90;;;;;;4992213;28;20501;-87
2022/07/12 12:20:29;;;;;;;0.70;0.70;;;24.90;99.90;;;;;;4992635;28;20050;-91
2022/07/12 12:22:57;;;;;;;0.65;0.60;;;25.00;99.90;;;;;;4960373;28;20051;-88
2022/07/12 12:25:24;;;;;;;0.93;0.70;;;24.60;99.90;;;;;;4994620;28;20162;-87
2022/07/12 12:27:57;;;;;;;0.68;0.40;;;25.00;99.90;;;;;;4960021;28;20039;-88
2022/07/12 12:30:24;;;;;;;1.00;0.52;;;25.10;99.90;;;;;;4975744;28;20051;-91
2022/07/12 12:32:52;;;;;;;0.70;0.70;;;25.10;99.90;;;;;;4959654;28;20058;-89
2022/07/12 12:35:32;;;;;;;0.93;0.50;;;25.20;99.90;;;;;;4992081;28;20409;-89
2022/07/12 12:38:03;;;;;;;0.65;0.60;;;25.20;99.90;;;;;;4992255;28;20051;-91
2022/07/12 12:40:34;;;;;;;0.70;0.65;;;25.20;99.90;;;;;;4991876;28;20500;-91
2022/07/12 12:43:07;;;;;;;0.63;0.57;;;25.30;99.90;;;;;;4991720;28;20535;-90
2022/07/12 12:45:33;;;;;;;1.67;0.70;;;25.40;99.90;;;;;;4992088;28;20042;-94
2022/07/12 12:48:01;;;;;;;0.60;0.60;;;25.40;99.90;;;;;;4960001;28;20051;-94
2022/07/12 12:50:47;;;;;;;0.65;0.65;;;25.50;99.90;;;;;;4960154;28;20050;-94
2022/07/12 12:53:24;;;;;;;0.52;0.40;;;24.70;99.90;;;;;;4959456;28;20133;-95
2022/07/12 12:55:53;;;;;;;0.88;0.70;;;25.50;99.90;;;;;;4959598;28;20047;-95
2022/07/12 12:58:28;;;;;;;0.43;0.40;;;25.50;99.90;;;;;;4959450;28;20047;-94
2022/07/12 13:00:55;;;;;;;0.30;0.30;;;25.60;99.90;;;;;;4958983;28;20038;-94
2022/07/12 13:03:24;;;;;;;1.08;1.02;;;25.60;99.90;;;;;;4959741;28;20054;-94
2022/07/12 13:05:50;;;;;;;0.40;0.40;;;25.60;99.90;;;;;;4943089;28;20050;-94
2022/07/12 13:08:18;;;;;;;0.90;0.60;;;25.60;99.90;;;;;;4959556;28;20504;-94
2022/07/12 13:10:45;;;;;;;0.40;0.40;;;25.70;99.90;;;;;;4959411;28;20049;-94
2022/07/12 13:13:14;;;;;;;0.73;0.68;;;25.80;99.90;;;;;;4959499;28;20050;-93